sensor_id;sensor_type;location;lat;lon;timestamp;temperature;humidity
25360;DHT22;13311;51.386;0.016;2022-07-23T00:03:57;19.90;90.80
25360;DHT22;13311;51.386;0.016;2022-07-23T00:08:58;20.00;90.90
25360;DHT22;13311;51.386;0.016;2022-07-23T00:13:58;20.00;90.80
25360;DHT22;13311;51.386;0.016;2022-07-23T00:18:59;20.10;90.70
25360;DHT22;13311;51.386;0.016;2022-07-23T00:24:01;20.10;90.60
25360;DHT22;13311;51.386;0.016;2022-07-23T00:29:02;20.20;90.50
25360;DHT22;13311;51.386;0.016;2022-07-23T00:34:03;20.20;90.40
25360;DHT22;13311;51.386;0.016;2022-07-23T00:39:04;20.30;90.30
25360;DHT22;13311;51.386;0.016;2022-07-23T00:44:18;20.30;90.20
25360;DHT22;13311;51.386;0.016;2022-07-23T00:49:25;20.30;90.00
25360;DHT22;13311;51.386;0.016;2022-07-23T00:54:28;20.40;90.00
25360;DHT22;13311;51.386;0.016;2022-07-23T00:59:29;20.30;90.10
25360;DHT22;13311;51.386;0.016;2022-07-23T01:04:30;20.30;90.10
25360;DHT22;13311;51.386;0.016;2022-07-23T01:09:31;20.20;90.30
25360;DHT22;13311;51.386;0.016;2022-07-23T01:14:32;20.10;90.40
25360;DHT22;13311;51.386;0.016;2022-07-23T01:19:33;20.10;90.50
25360;DHT22;13311;51.386;0.016;2022-07-23T01:24:33;20.10;90.70
25360;DHT22;13311;51.386;0.016;2022-07-23T01:29:34;20.00;90.90
25360;DHT22;13311;51.386;0.016;2022-07-23T01:34:35;20.00;90.90
25360;DHT22;13311;51.386;0.016;2022-07-23T01:39:36;20.00;90.80
25360;DHT22;13311;51.386;0.016;2022-07-23T01:44:37;20.00;90.90
25360;DHT22;13311;51.386;0.016;2022-07-23T01:49:37;20.00;90.90
25360;DHT22;13311;51.386;0.016;2022-07-23T01:54:39;20.00;90.90
25360;DHT22;13311;51.386;0.016;2022-07-23T01:59:40;19.90;91.00
25360;DHT22;13311;51.386;0.016;2022-07-23T02:04:41;19.90;91.10
25360;DHT22;13311;51.386;0.016;2022-07-23T02:09:41;19.90;91.10
25360;DHT22;13311;51.386;0.016;2022-07-23T02:14:42;20.00;91.00
25360;DHT22;13311;51.386;0.016;2022-07-23T02:19:43;20.00;91.00
25360;DHT22;13311;51.386;0.016;2022-07-23T02:24:44;20.00;90.90
25360;DHT22;13311;51.386;0.016;2022-07-23T02:29:44;20.10;90.90
25360;DHT22;13311;51.386;0.016;2022-07-23T02:34:45;20.10;90.80
25360;DHT22;13311;51.386;0.016;2022-07-23T02:39:46;20.20;90.70
25360;DHT22;13311;51.386;0.016;2022-07-23T02:44:48;20.30;90.60
25360;DHT22;13311;51.386;0.016;2022-07-23T02:49:49;20.20;90.50
25360;DHT22;13311;51.386;0.016;2022-07-23T02:54:50;20.20;90.60
25360;DHT22;13311;51.386;0.016;2022-07-23T02:59:50;20.30;90.60
25360;DHT22;13311;51.386;0.016;2022-07-23T03:04:51;20.20;90.60
25360;DHT22;13311;51.386;0.016;2022-07-23T03:09:52;20.20;90.70
25360;DHT22;13311;51.386;0.016;2022-07-23T03:14:53;20.20;90.60
25360;DHT22;13311;51.386;0.016;2022-07-23T03:19:54;20.30;90.60
25360;DHT22;13311;51.386;0.016;2022-07-23T03:24:55;20.30;90.50
25360;DHT22;13311;51.386;0.016;2022-07-23T03:29:58;20.30;90.50
25360;DHT22;13311;51.386;0.016;2022-07-23T03:34:59;20.30;90.40
25360;DHT22;13311;51.386;0.016;2022-07-23T03:40:00;20.20;90.50
25360;DHT22;13311;51.386;0.016;2022-07-23T03:45:01;20.10;90.70
25360;DHT22;13311;51.386;0.016;2022-07-23T03:50:03;20.00;90.90
25360;DHT22;13311;51.386;0.016;2022-07-23T03:55:04;19.90;91.00
25360;DHT22;13311;51.386;0.016;2022-07-23T04:00:07;19.80;91.20
25360;DHT22;13311;51.386;0.016;2022-07-23T04:05:09;19.70;91.40
25360;DHT22;13311;51.386;0.016;2022-07-23T04:10:10;19.60;91.60
25360;DHT22;13311;51.386;0.016;2022-07-23T04:15:11;19.70;91.70
25360;DHT22;13311;51.386;0.016;2022-07-23T04:20:12;19.70;91.70
25360;DHT22;13311;51.386;0.016;2022-07-23T04:25:13;19.70;91.90
25360;DHT22;13311;51.386;0.016;2022-07-23T04:30:17;19.80;92.00
25360;DHT22;13311;51.386;0.016;2022-07-23T04:35:17;19.80;92.10
25360;DHT22;13311;51.386;0.016;2022-07-23T04:40:18;19.90;92.30
25360;DHT22;13311;51.386;0.016;2022-07-23T04:45:19;19.90;91.90
25360;DHT22;13311;51.386;0.016;2022-07-23T04:50:20;19.90;91.90
25360;DHT22;13311;51.386;0.016;2022-07-23T04:55:21;20.00;91.90
25360;DHT22;13311;51.386;0.016;2022-07-23T05:00:22;19.90;92.00
25360;DHT22;13311;51.386;0.016;2022-07-23T05:05:23;20.00;92.00
25360;DHT22;13311;51.386;0.016;2022-07-23T05:10:24;20.00;92.00
25360;DHT22;13311;51.386;0.016;2022-07-23T05:15:25;20.10;91.80
25360;DHT22;13311;51.386;0.016;2022-07-23T05:20:26;20.10;91.70
25360;DHT22;13311;51.386;0.016;2022-07-23T05:25:27;20.20;91.70
25360;DHT22;13311;51.386;0.016;2022-07-23T05:30:28;20.30;91.80
25360;DHT22;13311;51.386;0.016;2022-07-23T05:35:28;20.80;91.90
25360;DHT22;13311;51.386;0.016;2022-07-23T05:40:29;21.70;90.90
25360;DHT22;13311;51.386;0.016;2022-07-23T05:45:30;22.70;88.20
25360;DHT22;13311;51.386;0.016;2022-07-23T05:50:31;23.80;84.40
25360;DHT22;13311;51.386;0.016;2022-07-23T05:55:32;24.70;80.60
25360;DHT22;13311;51.386;0.016;2022-07-23T06:00:33;25.60;78.20
25360;DHT22;13311;51.386;0.016;2022-07-23T06:05:34;26.40;74.70
25360;DHT22;13311;51.386;0.016;2022-07-23T06:10:34;26.90;72.20
25360;DHT22;13311;51.386;0.016;2022-07-23T06:15:35;27.50;70.00
25360;DHT22;13311;51.386;0.016;2022-07-23T06:20:36;28.10;68.10
25360;DHT22;13311;51.386;0.016;2022-07-23T06:25:38;28.60;65.80
25360;DHT22;13311;51.386;0.016;2022-07-23T06:30:39;29.10;64.50
25360;DHT22;13311;51.386;0.016;2022-07-23T06:35:39;29.30;62.00
25360;DHT22;13311;51.386;0.016;2022-07-23T06:40:40;29.30;60.80
25360;DHT22;13311;51.386;0.016;2022-07-23T06:45:41;29.20;61.10
25360;DHT22;13311;51.386;0.016;2022-07-23T06:50:42;29.30;60.70
25360;DHT22;13311;51.386;0.016;2022-07-23T06:55:43;29.80;59.90
25360;DHT22;13311;51.386;0.016;2022-07-23T07:00:43;30.10;58.90
25360;DHT22;13311;51.386;0.016;2022-07-23T07:05:45;30.40;57.50
25360;DHT22;13311;51.386;0.016;2022-07-23T07:10:46;30.60;56.80
25360;DHT22;13311;51.386;0.016;2022-07-23T07:15:46;30.80;55.70
25360;DHT22;13311;51.386;0.016;2022-07-23T07:20:48;30.90;55.40
25360;DHT22;13311;51.386;0.016;2022-07-23T07:25:49;30.70;55.40
25360;DHT22;13311;51.386;0.016;2022-07-23T07:30:50;30.50;55.80
25360;DHT22;13311;51.386;0.016;2022-07-23T07:35:52;30.60;55.50
25360;DHT22;13311;51.386;0.016;2022-07-23T07:40:53;30.40;55.50
25360;DHT22;13311;51.386;0.016;2022-07-23T07:45:54;30.00;55.00
25360;DHT22;13311;51.386;0.016;2022-07-23T07:50:54;30.00;55.80
25360;DHT22;13311;51.386;0.016;2022-07-23T07:55:55;29.80;54.80
25360;DHT22;13311;51.386;0.016;2022-07-23T08:00:56;29.70;55.10
25360;DHT22;13311;51.386;0.016;2022-07-23T08:05:57;29.50;55.20
25360;DHT22;13311;51.386;0.016;2022-07-23T08:10:58;29.40;56.70
25360;DHT22;13311;51.386;0.016;2022-07-23T08:15:58;29.20;56.40
25360;DHT22;13311;51.386;0.016;2022-07-23T08:20:59;29.10;56.70
25360;DHT22;13311;51.386;0.016;2022-07-23T08:26:00;29.20;56.40
25360;DHT22;13311;51.386;0.016;2022-07-23T08:31:01;29.20;57.00
25360;DHT22;13311;51.386;0.016;2022-07-23T08:36:04;29.30;54.70
25360;DHT22;13311;51.386;0.016;2022-07-23T08:41:07;29.30;56.80
25360;DHT22;13311;51.386;0.016;2022-07-23T08:46:08;29.40;55.60
25360;DHT22;13311;51.386;0.016;2022-07-23T08:51:09;29.50;52.70
25360;DHT22;13311;51.386;0.016;2022-07-23T08:56:10;29.50;54.40
25360;DHT22;13311;51.386;0.016;2022-07-23T09:01:11;29.70;55.00
25360;DHT22;13311;51.386;0.016;2022-07-23T09:06:12;29.40;52.40
25360;DHT22;13311;51.386;0.016;2022-07-23T09:11:16;29.60;52.20
25360;DHT22;13311;51.386;0.016;2022-07-23T09:16:24;29.70;53.20
25360;DHT22;13311;51.386;0.016;2022-07-23T09:21:35;30.10;53.30
25360;DHT22;13311;51.386;0.016;2022-07-23T09:26:42;30.00;49.40
25360;DHT22;13311;51.386;0.016;2022-07-23T09:31:53;30.10;50.10
25360;DHT22;13311;51.386;0.016;2022-07-23T09:37:15;30.40;50.50
25360;DHT22;13311;51.386;0.016;2022-07-23T09:42:25;30.50;48.90
25360;DHT22;13311;51.386;0.016;2022-07-23T09:47:29;30.70;52.60
25360;DHT22;13311;51.386;0.016;2022-07-23T09:52:34;30.80;51.40
25360;DHT22;13311;51.386;0.016;2022-07-23T09:57:47;30.90;52.30
25360;DHT22;13311;51.386;0.016;2022-07-23T10:02:53;30.80;52.60
25360;DHT22;13311;51.386;0.016;2022-07-23T10:07:55;30.90;51.30
25360;DHT22;13311;51.386;0.016;2022-07-23T10:12:59;31.20;53.20
25360;DHT22;13311;51.386;0.016;2022-07-23T10:18:23;31.20;47.90
25360;DHT22;13311;51.386;0.016;2022-07-23T10:23:47;31.50;54.30
25360;DHT22;13311;51.386;0.016;2022-07-23T10:29:20;31.20;46.20
25360;DHT22;13311;51.386;0.016;2022-07-23T10:34:47;31.40;44.40
25360;DHT22;13311;51.386;0.016;2022-07-23T10:45:36;31.20;45.20
25360;DHT22;13311;51.386;0.016;2022-07-23T10:50:40;31.40;41.50
25360;DHT22;13311;51.386;0.016;2022-07-23T10:55:44;31.50;42.30
25360;DHT22;13311;51.386;0.016;2022-07-23T11:00:47;31.60;41.90
25360;DHT22;13311;51.386;0.016;2022-07-23T11:05:48;31.90;40.70
25360;DHT22;13311;51.386;0.016;2022-07-23T11:10:54;32.20;44.70
25360;DHT22;13311;51.386;0.016;2022-07-23T11:36:57;31.80;39.40
25360;DHT22;13311;51.386;0.016;2022-07-23T11:42:04;32.10;40.90
25360;DHT22;13311;51.386;0.016;2022-07-23T11:47:10;32.20;41.80
25360;DHT22;13311;51.386;0.016;2022-07-23T11:52:15;32.30;44.20
25360;DHT22;13311;51.386;0.016;2022-07-23T11:57:16;32.10;37.60
25360;DHT22;13311;51.386;0.016;2022-07-23T12:02:19;32.30;45.00
25360;DHT22;13311;51.386;0.016;2022-07-23T12:07:35;32.50;45.60
25360;DHT22;13311;51.386;0.016;2022-07-23T12:13:01;32.40;37.40
25360;DHT22;13311;51.386;0.016;2022-07-23T12:18:02;32.10;38.40
25360;DHT22;13311;51.386;0.016;2022-07-23T12:23:05;32.30;40.80
25360;DHT22;13311;51.386;0.016;2022-07-23T12:28:13;32.50;44.90
25360;DHT22;13311;51.386;0.016;2022-07-23T12:33:23;32.50;43.90
25360;DHT22;13311;51.386;0.016;2022-07-23T12:38:51;32.50;40.50
25360;DHT22;13311;51.386;0.016;2022-07-23T12:43:52;32.60;42.80
25360;DHT22;13311;51.386;0.016;2022-07-23T12:48:54;32.60;37.90
25360;DHT22;13311;51.386;0.016;2022-07-23T12:53:58;32.80;39.40
25360;DHT22;13311;51.386;0.016;2022-07-23T12:59:05;32.90;45.30
25360;DHT22;13311;51.386;0.016;2022-07-23T13:04:21;32.90;37.90
25360;DHT22;13311;51.386;0.016;2022-07-23T13:09:25;32.50;37.20
25360;DHT22;13311;51.386;0.016;2022-07-23T13:14:27;32.40;43.60
25360;DHT22;13311;51.386;0.016;2022-07-23T13:19:28;32.50;38.70
25360;DHT22;13311;51.386;0.016;2022-07-23T13:24:29;32.50;37.30
25360;DHT22;13311;51.386;0.016;2022-07-23T13:29:30;32.70;37.80
25360;DHT22;13311;51.386;0.016;2022-07-23T13:34:31;32.60;39.50
25360;DHT22;13311;51.386;0.016;2022-07-23T13:39:32;32.50;38.70
25360;DHT22;13311;51.386;0.016;2022-07-23T13:44:33;32.60;38.30
25360;DHT22;13311;51.386;0.016;2022-07-23T13:49:34;32.30;38.90
25360;DHT22;13311;51.386;0.016;2022-07-23T13:54:36;32.40;45.70
25360;DHT22;13311;51.386;0.016;2022-07-23T13:59:37;32.00;39.40
25360;DHT22;13311;51.386;0.016;2022-07-23T14:04:37;32.00;39.40
25360;DHT22;13311;51.386;0.016;2022-07-23T14:09:40;31.90;40.80
25360;DHT22;13311;51.386;0.016;2022-07-23T14:14:40;32.10;41.90
25360;DHT22;13311;51.386;0.016;2022-07-23T14:19:43;32.00;42.00
25360;DHT22;13311;51.386;0.016;2022-07-23T14:24:44;31.70;43.60
25360;DHT22;13311;51.386;0.016;2022-07-23T14:29:45;31.80;44.90
25360;DHT22;13311;51.386;0.016;2022-07-23T14:34:46;31.80;42.80
25360;DHT22;13311;51.386;0.016;2022-07-23T14:39:48;31.90;43.70
25360;DHT22;13311;51.386;0.016;2022-07-23T14:44:49;31.80;43.10
25360;DHT22;13311;51.386;0.016;2022-07-23T14:49:50;31.60;45.80
25360;DHT22;13311;51.386;0.016;2022-07-23T14:54:50;31.60;44.40
25360;DHT22;13311;51.386;0.016;2022-07-23T14:59:51;31.50;47.40
25360;DHT22;13311;51.386;0.016;2022-07-23T15:04:52;31.50;48.40
25360;DHT22;13311;51.386;0.016;2022-07-23T15:09:53;31.40;47.90
25360;DHT22;13311;51.386;0.016;2022-07-23T15:14:54;31.20;47.20
25360;DHT22;13311;51.386;0.016;2022-07-23T15:19:54;31.20;45.50
25360;DHT22;13311;51.386;0.016;2022-07-23T15:24:55;31.20;48.10
25360;DHT22;13311;51.386;0.016;2022-07-23T15:29:56;31.10;46.70
25360;DHT22;13311;51.386;0.016;2022-07-23T15:34:57;31.20;47.10
25360;DHT22;13311;51.386;0.016;2022-07-23T15:39:58;31.20;48.00
25360;DHT22;13311;51.386;0.016;2022-07-23T15:44:58;31.30;47.20
25360;DHT22;13311;51.386;0.016;2022-07-23T15:49:59;31.50;48.50
25360;DHT22;13311;51.386;0.016;2022-07-23T15:55:00;31.60;47.40
25360;DHT22;13311;51.386;0.016;2022-07-23T16:00:01;31.40;48.60
25360;DHT22;13311;51.386;0.016;2022-07-23T16:05:02;31.00;49.30
25360;DHT22;13311;51.386;0.016;2022-07-23T16:10:07;31.00;49.30
25360;DHT22;13311;51.386;0.016;2022-07-23T16:15:10;30.90;49.50
25360;DHT22;13311;51.386;0.016;2022-07-23T16:20:11;31.00;49.50
25360;DHT22;13311;51.386;0.016;2022-07-23T16:25:12;30.80;49.20
25360;DHT22;13311;51.386;0.016;2022-07-23T16:30:13;30.50;49.30
25360;DHT22;13311;51.386;0.016;2022-07-23T16:35:14;30.70;49.50
25360;DHT22;13311;51.386;0.016;2022-07-23T16:40:15;30.70;50.60
25360;DHT22;13311;51.386;0.016;2022-07-23T16:45:16;30.50;50.80
25360;DHT22;13311;51.386;0.016;2022-07-23T16:50:17;30.60;50.30
25360;DHT22;13311;51.386;0.016;2022-07-23T16:55:18;30.50;50.00
25360;DHT22;13311;51.386;0.016;2022-07-23T17:00:19;29.90;50.10
25360;DHT22;13311;51.386;0.016;2022-07-23T17:05:19;30.00;51.00
25360;DHT22;13311;51.386;0.016;2022-07-23T17:10:21;30.10;51.50
25360;DHT22;13311;51.386;0.016;2022-07-23T17:15:23;30.00;49.30
25360;DHT22;13311;51.386;0.016;2022-07-23T17:20:23;29.80;50.60
25360;DHT22;13311;51.386;0.016;2022-07-23T17:25:24;29.80;51.00
25360;DHT22;13311;51.386;0.016;2022-07-23T17:30:25;29.80;50.90
25360;DHT22;13311;51.386;0.016;2022-07-23T17:35:26;29.70;51.60
25360;DHT22;13311;51.386;0.016;2022-07-23T17:40:27;30.00;51.60
25360;DHT22;13311;51.386;0.016;2022-07-23T17:45:27;30.10;51.50
25360;DHT22;13311;51.386;0.016;2022-07-23T17:50:28;30.00;51.50
25360;DHT22;13311;51.386;0.016;2022-07-23T17:55:29;30.10;51.50
25360;DHT22;13311;51.386;0.016;2022-07-23T18:00:33;30.10;51.30
25360;DHT22;13311;51.386;0.016;2022-07-23T18:05:35;30.10;51.20
25360;DHT22;13311;51.386;0.016;2022-07-23T18:10:36;29.90;51.70
25360;DHT22;13311;51.386;0.016;2022-07-23T18:15:56;29.70;51.80
25360;DHT22;13311;51.386;0.016;2022-07-23T18:20:57;29.60;51.90
25360;DHT22;13311;51.386;0.016;2022-07-23T18:25:58;29.40;52.40
25360;DHT22;13311;51.386;0.016;2022-07-23T18:30:59;29.00;53.20
25360;DHT22;13311;51.386;0.016;2022-07-23T18:35:59;29.00;53.40
25360;DHT22;13311;51.386;0.016;2022-07-23T18:41:00;29.20;53.30
25360;DHT22;13311;51.386;0.016;2022-07-23T18:46:02;29.10;53.20
25360;DHT22;13311;51.386;0.016;2022-07-23T18:51:03;29.20;53.10
25360;DHT22;13311;51.386;0.016;2022-07-23T18:56:04;29.10;53.40
25360;DHT22;13311;51.386;0.016;2022-07-23T19:01:05;29.00;53.50
25360;DHT22;13311;51.386;0.016;2022-07-23T19:06:06;29.00;53.60
25360;DHT22;13311;51.386;0.016;2022-07-23T19:11:07;28.90;53.50
25360;DHT22;13311;51.386;0.016;2022-07-23T19:16:08;28.50;54.10
25360;DHT22;13311;51.386;0.016;2022-07-23T19:21:09;28.30;54.60
25360;DHT22;13311;51.386;0.016;2022-07-23T19:26:10;28.00;55.10
25360;DHT22;13311;51.386;0.016;2022-07-23T19:31:10;27.70;55.60
25360;DHT22;13311;51.386;0.016;2022-07-23T19:36:12;27.50;56.20
25360;DHT22;13311;51.386;0.016;2022-07-23T19:41:13;27.20;56.90
25360;DHT22;13311;51.386;0.016;2022-07-23T19:46:13;27.10;57.40
25360;DHT22;13311;51.386;0.016;2022-07-23T19:51:14;27.10;57.70
25360;DHT22;13311;51.386;0.016;2022-07-23T19:56:15;27.20;57.40
25360;DHT22;13311;51.386;0.016;2022-07-23T20:01:20;27.20;57.80
25360;DHT22;13311;51.386;0.016;2022-07-23T20:06:21;27.10;57.70
25360;DHT22;13311;51.386;0.016;2022-07-23T20:11:22;27.10;57.90
25360;DHT22;13311;51.386;0.016;2022-07-23T20:16:23;27.00;58.30
25360;DHT22;13311;51.386;0.016;2022-07-23T20:21:25;26.90;59.30
25360;DHT22;13311;51.386;0.016;2022-07-23T20:26:26;26.60;59.40
25360;DHT22;13311;51.386;0.016;2022-07-23T20:31:26;26.40;60.70
25360;DHT22;13311;51.386;0.016;2022-07-23T20:36:27;26.20;61.70
25360;DHT22;13311;51.386;0.016;2022-07-23T20:41:28;26.10;62.30
25360;DHT22;13311;51.386;0.016;2022-07-23T20:46:29;26.00;62.50
25360;DHT22;13311;51.386;0.016;2022-07-23T20:51:30;25.90;63.40
25360;DHT22;13311;51.386;0.016;2022-07-23T20:56:30;25.70;64.20
25360;DHT22;13311;51.386;0.016;2022-07-23T21:01:33;25.80;63.80
25360;DHT22;13311;51.386;0.016;2022-07-23T21:06:34;25.50;65.10
25360;DHT22;13311;51.386;0.016;2022-07-23T21:11:34;25.30;66.40
25360;DHT22;13311;51.386;0.016;2022-07-23T21:16:35;25.00;67.50
25360;DHT22;13311;51.386;0.016;2022-07-23T21:21:36;25.00;67.70
25360;DHT22;13311;51.386;0.016;2022-07-23T21:26:37;24.80;68.40
25360;DHT22;13311;51.386;0.016;2022-07-23T21:31:38;24.90;68.10
25360;DHT22;13311;51.386;0.016;2022-07-23T21:36:39;24.70;69.00
25360;DHT22;13311;51.386;0.016;2022-07-23T21:41:40;24.70;69.40
25360;DHT22;13311;51.386;0.016;2022-07-23T21:46:41;24.50;70.00
25360;DHT22;13311;51.386;0.016;2022-07-23T21:51:42;24.50;70.80
25360;DHT22;13311;51.386;0.016;2022-07-23T21:56:44;24.40;70.90
25360;DHT22;13311;51.386;0.016;2022-07-23T22:01:45;24.40;70.80
25360;DHT22;13311;51.386;0.016;2022-07-23T22:06:46;24.30;71.60
25360;DHT22;13311;51.386;0.016;2022-07-23T22:11:47;24.10;72.80
25360;DHT22;13311;51.386;0.016;2022-07-23T22:16:48;24.10;72.40
25360;DHT22;13311;51.386;0.016;2022-07-23T22:21:49;24.00;73.30
25360;DHT22;13311;51.386;0.016;2022-07-23T22:26:49;23.90;73.80
25360;DHT22;13311;51.386;0.016;2022-07-23T22:31:50;23.90;73.70
25360;DHT22;13311;51.386;0.016;2022-07-23T22:36:51;23.80;74.10
25360;DHT22;13311;51.386;0.016;2022-07-23T22:41:52;23.80;74.20
25360;DHT22;13311;51.386;0.016;2022-07-23T22:46:52;23.90;74.10
25360;DHT22;13311;51.386;0.016;2022-07-23T22:51:53;23.70;74.80
25360;DHT22;13311;51.386;0.016;2022-07-23T22:56:54;23.50;75.70
25360;DHT22;13311;51.386;0.016;2022-07-23T23:01:55;23.40;76.90
25360;DHT22;13311;51.386;0.016;2022-07-23T23:06:55;23.50;76.40
25360;DHT22;13311;51.386;0.016;2022-07-23T23:11:56;23.40;77.20
25360;DHT22;13311;51.386;0.016;2022-07-23T23:16:57;23.40;77.50
25360;DHT22;13311;51.386;0.016;2022-07-23T23:21:58;23.40;77.50
25360;DHT22;13311;51.386;0.016;2022-07-23T23:26:59;23.40;78.00
25360;DHT22;13311;51.386;0.016;2022-07-23T23:31:59;23.40;76.40
25360;DHT22;13311;51.386;0.016;2022-07-23T23:37:00;23.30;78.10
25360;DHT22;13311;51.386;0.016;2022-07-23T23:42:01;23.30;78.00
25360;DHT22;13311;51.386;0.016;2022-07-23T23:47:02;23.30;77.40
25360;DHT22;13311;51.386;0.016;2022-07-23T23:52:04;23.30;78.70
25360;DHT22;13311;51.386;0.016;2022-07-23T23:57:05;23.20;79.30
